Time;durP1;ratioP1;P1;durP2;ratioP2;P2;SDS_P1;SDS_P2;PMS_P1;PMS_P2;Temp;Humidity;BMP_temperature;BMP_pressure;BME280_temperature;BME280_humidity;BME280_pressure;Samples;Min_cycle;Max_cycle;Signal;HPM_P1;HPM_P2
2023/06/20 00:00:06;;;;;;;0.03;0.03;;;22.70;99.90;;;;;;5032679;28;20029;-85
2023/06/20 00:02:32;;;;;;;0.10;0.10;;;22.70;99.90;;;;;;5032041;28;20030;-84
2023/06/20 00:05:00;;;;;;;0.22;0.20;;;22.60;99.90;;;;;;5031779;28;20036;-85
2023/06/20 00:07:26;;;;;;;0.15;0.15;;;22.60;99.90;;;;;;5032157;28;20041;-85
2023/06/20 00:09:51;;;;;;;0.28;0.28;;;22.60;99.90;;;;;;5032064;28;20025;-85
2023/06/20 00:12:17;;;;;;;0.15;0.15;;;22.50;99.90;;;;;;5032599;28;20026;-84
2023/06/20 00:14:43;;;;;;;0.90;0.20;;;22.40;99.90;;;;;;5031886;28;20093;-85
2023/06/20 00:17:08;;;;;;;0.10;0.10;;;22.50;99.90;;;;;;5032134;28;20128;-84
2023/06/20 00:19:34;;;;;;;0.10;0.10;;;22.40;99.90;;;;;;5031805;28;20496;-85
2023/06/20 00:22:02;;;;;;;0.38;0.38;;;22.40;99.90;;;;;;5032028;28;20026;-85
2023/06/20 00:24:31;;;;;;;0.10;0.10;;;22.40;99.90;;;;;;5031975;28;20026;-85
2023/06/20 00:26:56;;;;;;;3.20;0.85;;;22.10;99.90;;;;;;5032391;28;20029;-84
2023/06/20 00:29:22;;;;;;;0.35;0.30;;;22.10;99.90;;;;;;5031884;28;20030;-85
2023/06/20 00:31:48;;;;;;;0.00;0.00;;;22.20;99.90;;;;;;5031756;28;20063;-84
2023/06/20 00:34:15;;;;;;;0.10;0.10;;;22.20;99.90;;;;;;5031482;28;20041;-85
2023/06/20 00:36:41;;;;;;;0.20;0.20;;;22.20;99.90;;;;;;5031985;28;20053;-84
2023/06/20 00:39:07;;;;;;;6.47;1.20;;;22.00;99.90;;;;;;5014470;28;20389;-85
2023/06/20 00:41:33;;;;;;;0.20;0.20;;;22.00;99.90;;;;;;5033857;28;20025;-85
2023/06/20 00:44:03;;;;;;;0.20;0.20;;;22.10;99.90;;;;;;5017901;28;20026;-84
2023/06/20 00:46:31;;;;;;;1.08;0.20;;;22.00;99.90;;;;;;5035625;28;20033;-84
2023/06/20 00:48:57;;;;;;;0.47;0.30;;;22.00;99.90;;;;;;5035419;28;20032;-85
2023/06/20 00:51:28;;;;;;;0.30;0.30;;;21.90;99.90;;;;;;5035657;28;20605;-85
2023/06/20 00:53:55;;;;;;;0.10;0.10;;;21.90;99.90;;;;;;5017749;28;20072;-85
2023/06/20 00:56:21;;;;;;;0.00;0.00;;;21.90;99.90;;;;;;5035894;28;20425;-84
2023/06/20 00:58:47;;;;;;;0.00;0.00;;;21.70;99.90;;;;;;5035501;28;20018;-84
2023/06/20 01:01:12;;;;;;;0.90;0.47;;;21.70;99.90;;;;;;5035408;28;20120;-85
2023/06/20 01:03:38;;;;;;;0.20;0.20;;;21.70;99.90;;;;;;5035132;28;20057;-84
2023/06/20 01:06:25;;;;;;;0.45;0.45;;;21.70;99.90;;;;;;5035263;28;20026;-85
2023/06/20 01:08:50;;;;;;;0.10;0.10;;;21.80;99.90;;;;;;5035310;28;20033;-85
2023/06/20 01:11:27;;;;;;;0.17;0.17;;;21.60;99.90;;;;;;5035688;28;20025;-84
2023/06/20 01:14:04;;;;;;;0.10;0.10;;;21.60;99.90;;;;;;5035228;28;20038;-85
2023/06/20 01:16:42;;;;;;;0.90;0.32;;;21.70;99.90;;;;;;5035040;28;20144;-85
2023/06/20 01:19:34;;;;;;;0.10;0.10;;;21.60;99.90;;;;;;5034825;28;20028;-84
2023/06/20 01:22:07;;;;;;;0.20;0.20;;;21.50;99.90;;;;;;5035013;28;20425;-84
2023/06/20 01:24:44;;;;;;;0.20;0.20;;;21.50;99.90;;;;;;5035002;28;20482;-85
2023/06/20 01:27:16;;;;;;;0.20;0.20;;;21.40;99.90;;;;;;5035158;28;20021;-84
2023/06/20 01:29:52;;;;;;;0.73;0.45;;;21.30;99.90;;;;;;5034780;28;20037;-84
2023/06/20 01:32:21;;;;;;;0.17;0.17;;;21.30;99.90;;;;;;5034478;28;20026;-84
2023/06/20 01:34:54;;;;;;;0.20;0.20;;;21.30;99.90;;;;;;5035115;28;20470;-85
2023/06/20 01:37:22;;;;;;;0.20;0.20;;;21.30;99.90;;;;;;5034458;28;20060;-84
2023/06/20 01:39:54;;;;;;;0.20;0.20;;;21.20;99.90;;;;;;5017060;28;20375;-85
2023/06/20 01:42:23;;;;;;;0.20;0.20;;;21.10;99.90;;;;;;5034494;28;20076;-84
2023/06/20 01:44:52;;;;;;;0.30;0.30;;;21.10;99.90;;;;;;5034445;28;20021;-85
2023/06/20 01:47:19;;;;;;;0.38;0.38;;;21.10;99.90;;;;;;5034289;28;20032;-85
2023/06/20 01:49:48;;;;;;;0.65;0.50;;;21.00;99.90;;;;;;5034659;28;20040;-84
2023/06/20 01:52:16;;;;;;;0.30;0.30;;;21.00;99.90;;;;;;5034602;28;20033;-84
2023/06/20 01:54:46;;;;;;;0.60;0.60;;;21.00;99.90;;;;;;5034423;28;20026;-84
2023/06/20 01:57:13;;;;;;;0.43;0.43;;;20.80;99.90;;;;;;5034815;28;20116;-84
2023/06/20 01:59:41;;;;;;;0.30;0.30;;;20.70;99.90;;;;;;5034393;28;20071;-84
2023/06/20 02:02:07;;;;;;;1.23;0.85;;;20.70;99.90;;;;;;5016326;28;20090;-84
2023/06/20 02:04:34;;;;;;;0.73;0.63;;;20.60;99.90;;;;;;5034248;28;20025;-84
2023/06/20 02:07:02;;;;;;;0.25;0.25;;;20.60;99.90;;;;;;5034677;28;20471;-84
2023/06/20 02:09:29;;;;;;;0.65;0.50;;;20.70;99.90;;;;;;5034171;28;20021;-85
2023/06/20 02:11:56;;;;;;;0.85;0.68;;;20.60;99.90;;;;;;5034225;28;20025;-85
2023/06/20 02:14:24;;;;;;;0.15;0.15;;;20.60;99.90;;;;;;5034033;28;20085;-84
2023/06/20 02:16:50;;;;;;;0.68;0.52;;;20.70;99.90;;;;;;5033950;28;20069;-84
2023/06/20 02:19:16;;;;;;;0.30;0.30;;;20.70;99.90;;;;;;5033982;28;20075;-84
2023/06/20 02:21:44;;;;;;;0.47;0.47;;;20.50;99.90;;;;;;5034075;28;20029;-84
2023/06/20 02:24:14;;;;;;;0.57;0.57;;;20.60;99.90;;;;;;5033919;28;20017;-84
2023/06/20 02:26:42;;;;;;;0.40;0.40;;;20.60;99.90;;;;;;5033881;28;20068;-84
2023/06/20 02:29:10;;;;;;;0.30;0.30;;;20.70;99.90;;;;;;5033782;28;20021;-84
2023/06/20 02:31:39;;;;;;;0.98;0.55;;;20.70;99.90;;;;;;5033351;28;20033;-84
2023/06/20 02:34:08;;;;;;;0.52;0.52;;;20.60;99.90;;;;;;5034148;28;20382;-85
2023/06/20 02:36:35;;;;;;;0.30;0.30;;;20.80;99.90;;;;;;5033343;28;20131;-84
2023/06/20 02:39:01;;;;;;;0.28;0.28;;;20.80;99.90;;;;;;5033704;28;20024;-84
2023/06/20 02:41:27;;;;;;;0.75;0.63;;;20.70;99.90;;;;;;5034130;28;20083;-84
2023/06/20 02:43:53;;;;;;;1.63;0.60;;;20.80;99.90;;;;;;5033231;28;20022;-84
2023/06/20 02:46:30;;;;;;;0.32;0.32;;;20.90;99.90;;;;;;5033314;28;20025;-84
2023/06/20 02:49:17;;;;;;;0.47;0.47;;;20.90;99.90;;;;;;5033574;28;20033;-84
2023/06/20 02:52:12;;;;;;;0.00;0.00;;;20.90;99.90;;;;;;5033802;28;20021;-84
2023/06/20 02:54:59;;;;;;;0.85;0.43;;;21.20;99.90;;;;;;4972466;28;20035;-84
2023/06/20 02:57:28;;;;;;;0.22;0.22;;;21.00;99.90;;;;;;4955985;28;20340;-84
2023/06/20 03:00:00;;;;;;;0.10;0.10;;;21.00;99.90;;;;;;4971973;28;20038;-85
2023/06/20 03:02:30;;;;;;;0.35;0.35;;;21.10;99.90;;;;;;4972197;28;20574;-84
2023/06/20 03:05:00;;;;;;;0.20;0.20;;;20.90;99.90;;;;;;4971774;28;20035;-85
2023/06/20 03:07:33;;;;;;;0.22;0.22;;;20.90;99.90;;;;;;4972136;28;20134;-84
2023/06/20 03:10:00;;;;;;;0.20;0.20;;;20.80;99.90;;;;;;4972531;28;20023;-84
2023/06/20 03:12:26;;;;;;;0.40;0.40;;;20.90;99.90;;;;;;4971967;28;20037;-84
2023/06/20 03:14:51;;;;;;;0.20;0.20;;;21.00;99.90;;;;;;4971739;28;20403;-84
2023/06/20 03:17:17;;;;;;;0.22;0.22;;;21.10;99.90;;;;;;4972021;28;20050;-84
2023/06/20 03:19:42;;;;;;;0.03;0.03;;;21.00;99.90;;;;;;4972049;28;20031;-85
2023/06/20 03:22:08;;;;;;;0.65;0.30;;;21.00;99.90;;;;;;4971975;28;20034;-84
2023/06/20 03:24:35;;;;;;;0.43;0.43;;;21.00;99.90;;;;;;4971738;28;20045;-85
2023/06/20 03:27:00;;;;;;;0.20;0.20;;;21.00;99.90;;;;;;4971751;28;20043;-84
2023/06/20 03:29:26;;;;;;;0.00;0.00;;;21.00;99.90;;;;;;4971575;28;20093;-84
2023/06/20 03:31:51;;;;;;;2.13;0.60;;;21.00;99.90;;;;;;5006829;28;20041;-84
2023/06/20 03:34:17;;;;;;;0.17;0.17;;;21.00;99.90;;;;;;5012836;28;20107;-84
2023/06/20 03:36:43;;;;;;;0.25;0.25;;;21.10;99.90;;;;;;5012628;28;20045;-85
2023/06/20 03:39:09;;;;;;;1.30;0.20;;;21.00;99.90;;;;;;5012944;28;20101;-85
2023/06/20 03:41:35;;;;;;;0.10;0.10;;;21.00;99.90;;;;;;5012752;28;20060;-85
2023/06/20 03:44:01;;;;;;;0.20;0.20;;;20.80;99.90;;;;;;5012502;28;20075;-84
2023/06/20 03:46:26;;;;;;;0.73;0.73;;;20.80;99.90;;;;;;5012707;28;20037;-85
2023/06/20 03:48:52;;;;;;;0.57;0.30;;;20.80;99.90;;;;;;5012690;28;20436;-85
2023/06/20 03:51:18;;;;;;;0.20;0.20;;;20.80;99.90;;;;;;5012640;28;20029;-84
2023/06/20 03:53:43;;;;;;;0.30;0.30;;;20.90;99.90;;;;;;5012728;28;20068;-84
2023/06/20 03:56:09;;;;;;;0.40;0.32;;;20.70;99.90;;;;;;5012295;28;20061;-84
2023/06/20 03:58:34;;;;;;;0.20;0.20;;;20.80;99.90;;;;;;5012580;28;20364;-85
2023/06/20 04:01:00;;;;;;;0.43;0.20;;;20.80;99.90;;;;;;5012677;28;20127;-84
2023/06/20 04:03:26;;;;;;;0.20;0.20;;;20.70;99.90;;;;;;5012433;28;20556;-84
2023/06/20 04:05:51;;;;;;;0.60;0.60;;;20.80;99.90;;;;;;5012619;28;20608;-85
2023/06/20 04:08:17;;;;;;;1.17;1.00;;;20.50;99.90;;;;;;5012440;28;20038;-84
2023/06/20 04:10:42;;;;;;;0.20;0.20;;;20.50;99.90;;;;;;5012650;28;20105;-85
2023/06/20 04:13:08;;;;;;;0.52;0.50;;;20.50;99.90;;;;;;5012145;28;20038;-85
2023/06/20 04:15:34;;;;;;;2.10;0.32;;;20.40;99.90;;;;;;5011431;28;20092;-85
2023/06/20 04:17:59;;;;;;;0.55;0.45;;;20.50;99.90;;;;;;5012300;28;20030;-85
2023/06/20 04:20:25;;;;;;;0.73;0.70;;;20.40;99.90;;;;;;5012807;28;20106;-84
2023/06/20 04:22:50;;;;;;;0.45;0.45;;;20.40;99.90;;;;;;5012300;28;20069;-84
2023/06/20 04:25:16;;;;;;;0.50;0.28;;;20.40;99.90;;;;;;5012003;28;20394;-84
2023/06/20 04:27:42;;;;;;;0.28;0.28;;;20.40;99.90;;;;;;5012279;28;20659;-84
2023/06/20 04:30:08;;;;;;;0.65;0.65;;;20.40;99.90;;;;;;5015088;28;20393;-85
2023/06/20 04:32:34;;;;;;;0.30;0.30;;;20.40;99.90;;;;;;5031940;28;20049;-84
2023/06/20 04:35:00;;;;;;;0.40;0.40;;;20.40;99.90;;;;;;5014195;28;20095;-84
2023/06/20 04:37:29;;;;;;;0.47;0.47;;;20.60;99.90;;;;;;5031652;28;20064;-84
2023/06/20 04:39:56;;;;;;;0.38;0.38;;;20.60;99.90;;;;;;5032232;28;20017;-84
2023/06/20 04:42:21;;;;;;;0.38;0.38;;;20.70;99.90;;;;;;5031253;28;20026;-85
2023/06/20 04:44:48;;;;;;;0.20;0.20;;;20.80;99.90;;;;;;5031774;28;20026;-84
2023/06/20 04:47:14;;;;;;;1.50;0.80;;;20.80;99.90;;;;;;5031836;28;20022;-84
2023/06/20 04:49:40;;;;;;;0.38;0.38;;;20.70;99.90;;;;;;5031570;28;20060;-84
2023/06/20 04:52:06;;;;;;;0.20;0.20;;;20.70;99.90;;;;;;5031802;28;20033;-85
2023/06/20 04:54:32;;;;;;;0.10;0.10;;;20.70;99.90;;;;;;5031880;28;20021;-85
2023/06/20 04:56:58;;;;;;;0.30;0.30;;;20.80;99.90;;;;;;5031461;28;20095;-84
2023/06/20 04:59:23;;;;;;;0.73;0.73;;;20.80;99.90;;;;;;5031623;28;20017;-85
2023/06/20 05:01:51;;;;;;;0.70;0.70;;;20.70;99.90;;;;;;5031971;28;20390;-84
2023/06/20 05:04:17;;;;;;;0.35;0.30;;;20.80;99.90;;;;;;5031880;28;20030;-84
2023/06/20 05:06:44;;;;;;;0.45;0.45;;;20.90;99.90;;;;;;5031300;28;20029;-84
2023/06/20 05:09:09;;;;;;;0.75;0.52;;;20.90;99.90;;;;;;5031525;28;20025;-85
2023/06/20 05:11:35;;;;;;;0.47;0.47;;;21.00;99.90;;;;;;5031589;28;20099;-84
2023/06/20 05:14:00;;;;;;;0.22;0.22;;;21.20;99.90;;;;;;5031428;28;20032;-84
2023/06/20 05:16:26;;;;;;;0.10;0.10;;;21.30;99.90;;;;;;5031526;28;20087;-84
2023/06/20 05:18:51;;;;;;;0.63;0.63;;;21.50;99.90;;;;;;5031371;28;20504;-84
2023/06/20 05:21:17;;;;;;;0.40;0.28;;;21.60;99.90;;;;;;5031399;28;20100;-85
2023/06/20 05:23:43;;;;;;;0.38;0.38;;;21.70;99.90;;;;;;5031686;28;20026;-85
2023/06/20 05:26:08;;;;;;;1.35;0.90;;;21.80;99.90;;;;;;5030860;28;20029;-85
2023/06/20 05:28:34;;;;;;;0.13;0.13;;;21.90;99.90;;;;;;5035188;28;20033;-85
2023/06/20 05:30:59;;;;;;;0.10;0.10;;;22.10;99.90;;;;;;5034287;28;20030;-85
2023/06/20 05:33:25;;;;;;;0.10;0.10;;;22.30;99.90;;;;;;5035126;28;20041;-85
2023/06/20 05:35:51;;;;;;;0.20;0.20;;;22.30;99.90;;;;;;5034765;28;20029;-85
2023/06/20 05:38:17;;;;;;;0.52;0.30;;;22.30;99.90;;;;;;5034360;28;20067;-84
2023/06/20 05:40:43;;;;;;;0.25;0.25;;;22.40;99.90;;;;;;5034823;28;20026;-84
2023/06/20 05:43:08;;;;;;;0.30;0.30;;;22.40;99.90;;;;;;5034427;28;20032;-84
2023/06/20 05:45:34;;;;;;;0.20;0.20;;;22.30;99.90;;;;;;5035069;28;20018;-85
2023/06/20 05:47:59;;;;;;;0.25;0.25;;;22.50;99.90;;;;;;5034610;28;20406;-84
2023/06/20 05:50:26;;;;;;;0.30;0.30;;;22.50;99.90;;;;;;5034529;28;20046;-85
2023/06/20 05:52:52;;;;;;;0.30;0.17;;;22.60;99.90;;;;;;5034062;28;20091;-85
2023/06/20 05:55:19;;;;;;;0.13;0.13;;;22.80;99.90;;;;;;5034796;28;20021;-85
2023/06/20 05:57:45;;;;;;;0.43;0.40;;;23.00;99.90;;;;;;5034363;28;20029;-85
2023/06/20 06:00:12;;;;;;;0.20;0.20;;;23.20;99.90;;;;;;5034308;28;20052;-85
2023/06/20 06:02:44;;;;;;;0.45;0.32;;;23.30;99.90;;;;;;5034361;28;20464;-85
2023/06/20 06:05:10;;;;;;;0.50;0.50;;;23.30;99.90;;;;;;5034251;28;20113;-85
2023/06/20 06:07:37;;;;;;;0.20;0.20;;;23.30;99.90;;;;;;5034292;28;20149;-85
2023/06/20 06:10:03;;;;;;;0.20;0.20;;;23.40;99.90;;;;;;5034162;28;20052;-85
2023/06/20 06:12:29;;;;;;;0.15;0.15;;;23.40;99.90;;;;;;5034206;28;20017;-84
2023/06/20 06:14:54;;;;;;;0.50;0.50;;;23.40;99.90;;;;;;5034385;28;20037;-85
2023/06/20 06:17:20;;;;;;;0.40;0.40;;;23.50;99.90;;;;;;5033976;28;20037;-85
2023/06/20 06:19:45;;;;;;;0.45;0.45;;;23.50;99.90;;;;;;5033858;28;20021;-85
2023/06/20 06:22:12;;;;;;;0.65;0.65;;;23.50;99.90;;;;;;5034095;28;20037;-85
2023/06/20 06:24:37;;;;;;;0.75;0.75;;;23.60;99.90;;;;;;5033820;28;20025;-84
2023/06/20 06:27:03;;;;;;;0.20;0.20;;;23.70;99.90;;;;;;5033827;28;20470;-84
2023/06/20 06:29:29;;;;;;;1.02;0.65;;;23.90;99.90;;;;;;5034260;28;20044;-84
2023/06/20 06:31:55;;;;;;;0.50;0.50;;;24.00;99.90;;;;;;5033554;28;20030;-85
2023/06/20 06:34:21;;;;;;;0.25;0.25;;;24.20;99.90;;;;;;5033596;28;20033;-84
2023/06/20 06:36:49;;;;;;;2.70;1.52;;;24.10;99.90;;;;;;5033109;28;20053;-85
2023/06/20 06:39:17;;;;;;;0.40;0.40;;;24.10;99.90;;;;;;5032818;28;20029;-85
2023/06/20 06:41:47;;;;;;;0.40;0.40;;;24.10;99.90;;;;;;5033563;28;20025;-85
2023/06/20 06:44:13;;;;;;;0.75;0.52;;;24.20;99.90;;;;;;5033443;28;20104;-85
2023/06/20 06:46:39;;;;;;;0.50;0.50;;;24.40;99.90;;;;;;5033872;28;20112;-85
2023/06/20 06:49:04;;;;;;;0.38;0.38;;;24.50;99.90;;;;;;5015722;28;20038;-85
2023/06/20 06:51:30;;;;;;;0.47;0.35;;;24.60;99.90;;;;;;5033174;28;20537;-85
2023/06/20 06:53:55;;;;;;;0.40;0.40;;;24.60;99.90;;;;;;5033570;28;20057;-84
2023/06/20 06:56:21;;;;;;;0.88;0.80;;;24.70;99.90;;;;;;5022208;28;20368;-85
2023/06/20 06:58:46;;;;;;;1.27;0.82;;;24.70;99.90;;;;;;5024614;28;20033;-85
2023/06/20 07:01:12;;;;;;;0.30;0.30;;;24.80;99.90;;;;;;5025303;28;20029;-85
2023/06/20 07:03:38;;;;;;;1.58;1.15;;;25.00;99.90;;;;;;5014237;28;20030;-85
2023/06/20 07:06:03;;;;;;;0.47;0.47;;;25.00;99.90;;;;;;5012865;28;20018;-85
2023/06/20 07:08:29;;;;;;;0.30;0.30;;;25.00;99.90;;;;;;5021544;28;20375;-85
2023/06/20 07:10:55;;;;;;;0.77;0.63;;;25.00;99.90;;;;;;5015344;28;20379;-85
2023/06/20 07:13:23;;;;;;;1.25;0.80;;;25.10;99.90;;;;;;5032982;28;20036;-85
2023/06/20 07:15:48;;;;;;;0.50;0.43;;;25.30;99.90;;;;;;5033312;28;20057;-85
2023/06/20 07:18:14;;;;;;;0.30;0.30;;;25.20;99.90;;;;;;5032670;28;20575;-85
2023/06/20 07:20:40;;;;;;;0.25;0.25;;;25.30;99.90;;;;;;5031920;28;20049;-85
2023/06/20 07:23:05;;;;;;;1.55;0.95;;;25.40;99.90;;;;;;5032670;28;20035;-85
2023/06/20 07:25:31;;;;;;;0.63;0.63;;;25.50;99.90;;;;;;5032850;28;20029;-84
2023/06/20 07:27:57;;;;;;;0.73;0.32;;;25.50;99.90;;;;;;5032587;28;20030;-85
2023/06/20 07:30:23;;;;;;;0.35;0.35;;;25.60;99.90;;;;;;5032430;28;20031;-85
2023/06/20 07:32:48;;;;;;;0.50;0.50;;;25.60;99.90;;;;;;5032410;28;20033;-85
2023/06/20 07:35:14;;;;;;;0.45;0.40;;;25.80;99.90;;;;;;5032723;28;20028;-85
2023/06/20 07:37:40;;;;;;;0.32;0.32;;;25.80;99.90;;;;;;5032265;28;20528;-85
2023/06/20 07:40:07;;;;;;;0.77;0.70;;;25.90;99.90;;;;;;5032576;28;20013;-85
2023/06/20 07:42:33;;;;;;;0.40;0.35;;;25.90;99.90;;;;;;5032255;28;20053;-84
2023/06/20 07:44:58;;;;;;;0.30;0.30;;;26.00;99.90;;;;;;5032564;28;20472;-85
2023/06/20 07:47:24;;;;;;;0.25;0.15;;;26.10;99.90;;;;;;5032335;28;20029;-85
2023/06/20 07:49:50;;;;;;;0.20;0.20;;;26.20;99.90;;;;;;5032386;28;20104;-85
2023/06/20 07:52:15;;;;;;;0.52;0.52;;;26.30;99.90;;;;;;5032541;28;20030;-84
2023/06/20 07:54:41;;;;;;;0.40;0.40;;;26.60;99.90;;;;;;5032749;28;20018;-85
2023/06/20 07:57:06;;;;;;;0.20;0.10;;;26.50;99.90;;;;;;5032318;28;20179;-85
2023/06/20 07:59:32;;;;;;;0.75;0.52;;;26.50;99.90;;;;;;5032362;28;20022;-85
2023/06/20 08:01:58;;;;;;;0.32;0.32;;;26.70;99.90;;;;;;5032583;28;20034;-85
2023/06/20 08:04:24;;;;;;;0.25;0.25;;;26.70;99.90;;;;;;5031768;28;20025;-85
2023/06/20 08:06:49;;;;;;;0.30;0.30;;;26.60;99.90;;;;;;5032220;28;20061;-85
2023/06/20 08:09:15;;;;;;;0.20;0.20;;;26.70;99.90;;;;;;5032139;28;20037;-85
2023/06/20 08:11:41;;;;;;;0.30;0.30;;;26.70;99.90;;;;;;5032174;28;20036;-85
2023/06/20 08:14:07;;;;;;;1.15;0.55;;;26.80;99.90;;;;;;5032008;28;20029;-85
2023/06/20 08:16:33;;;;;;;0.50;0.50;;;26.80;99.90;;;;;;5032273;28;20371;-85
2023/06/20 08:18:58;;;;;;;0.20;0.20;;;27.00;99.90;;;;;;5031857;28;20029;-85
2023/06/20 08:21:24;;;;;;;0.57;0.40;;;26.60;99.90;;;;;;5031834;28;20029;-86
2023/06/20 08:23:50;;;;;;;0.30;0.30;;;27.20;99.90;;;;;;5032010;28;20091;-85
2023/06/20 08:26:15;;;;;;;0.57;0.57;;;27.30;99.90;;;;;;5032197;28;20036;-85
2023/06/20 08:28:41;;;;;;;0.13;0.13;;;27.30;99.90;;;;;;5032384;28;20014;-85
2023/06/20 08:31:07;;;;;;;1.00;0.30;;;27.40;99.90;;;;;;5031823;28;20040;-85
2023/06/20 08:33:32;;;;;;;0.88;0.80;;;27.40;99.90;;;;;;5031640;28;20025;-85
2023/06/20 08:35:58;;;;;;;0.22;0.22;;;27.40;99.90;;;;;;5031761;28;20029;-85
2023/06/20 08:38:23;;;;;;;1.25;0.82;;;27.50;99.90;;;;;;5032295;28;20030;-86
2023/06/20 08:40:50;;;;;;;0.70;0.50;;;27.40;99.90;;;;;;5031905;28;20098;-85
2023/06/20 08:43:16;;;;;;;0.47;0.47;;;27.40;99.90;;;;;;5031709;28;20021;-86
2023/06/20 08:45:43;;;;;;;0.68;0.40;;;27.50;99.90;;;;;;5014097;28;20030;-85
2023/06/20 08:48:09;;;;;;;0.47;0.40;;;27.40;99.90;;;;;;5031935;28;20084;-85
2023/06/20 08:50:39;;;;;;;0.65;0.65;;;27.60;99.90;;;;;;5031811;28;20537;-85
2023/06/20 08:53:06;;;;;;;0.55;0.55;;;27.80;99.90;;;;;;5031907;28;20032;-85
2023/06/20 08:55:34;;;;;;;1.95;1.08;;;27.80;99.90;;;;;;5031595;28;20081;-85
2023/06/20 08:58:00;;;;;;;0.50;0.50;;;27.80;99.90;;;;;;5032059;28;20048;-85
2023/06/20 09:00:25;;;;;;;0.20;0.20;;;27.90;99.90;;;;;;5031355;28;20501;-86
2023/06/20 09:02:52;;;;;;;0.65;0.30;;;27.90;99.90;;;;;;5034041;28;20037;-85
2023/06/20 09:05:18;;;;;;;0.20;0.20;;;28.00;99.90;;;;;;5035423;28;20029;-85
2023/06/20 09:07:44;;;;;;;0.82;0.82;;;28.30;99.90;;;;;;5035180;28;20028;-86
2023/06/20 09:10:13;;;;;;;1.10;0.70;;;28.40;99.90;;;;;;5035810;28;20033;-85
2023/06/20 09:12:50;;;;;;;0.75;0.75;;;28.50;99.90;;;;;;5035160;28;20029;-85
2023/06/20 09:15:26;;;;;;;1.20;0.63;;;28.30;99.90;;;;;;5035201;28;20136;-85
2023/06/20 09:17:54;;;;;;;1.48;1.13;;;28.40;99.90;;;;;;5034823;28;20033;-84
2023/06/20 09:20:20;;;;;;;0.50;0.50;;;28.40;99.90;;;;;;5035221;28;20110;-85
2023/06/20 09:22:46;;;;;;;0.68;0.68;;;28.50;99.90;;;;;;5035392;28;20029;-85
2023/06/20 09:25:18;;;;;;;6.10;1.02;;;28.60;99.90;;;;;;5035060;28;20111;-85
2023/06/20 09:27:44;;;;;;;1.13;0.73;;;28.80;99.90;;;;;;5034974;28;20025;-85
2023/06/20 09:30:09;;;;;;;0.57;0.57;;;28.60;99.90;;;;;;5034895;28;20044;-85
2023/06/20 09:32:42;;;;;;;0.35;0.35;;;28.80;99.90;;;;;;5034957;28;20025;-85
2023/06/20 09:35:10;;;;;;;0.55;0.55;;;28.90;99.90;;;;;;5035066;28;20034;-85
2023/06/20 09:37:39;;;;;;;1.13;1.00;;;28.90;99.90;;;;;;5016956;28;20052;-85
2023/06/20 09:40:12;;;;;;;0.93;0.88;;;28.70;99.90;;;;;;5034733;28;20394;-85
2023/06/20 09:42:39;;;;;;;0.82;0.82;;;28.80;99.90;;;;;;5034817;28;20032;-85
2023/06/20 09:45:06;;;;;;;0.90;0.65;;;28.80;99.90;;;;;;5016689;28;20116;-85
2023/06/20 09:47:37;;;;;;;0.25;0.22;;;29.20;99.90;;;;;;5034727;28;20505;-85
2023/06/20 09:50:08;;;;;;;0.47;0.47;;;29.10;99.90;;;;;;5034648;28;20083;-85
2023/06/20 09:52:43;;;;;;;1.08;0.68;;;29.40;99.90;;;;;;5034918;28;20010;-84
2023/06/20 09:55:14;;;;;;;0.50;0.50;;;29.20;99.90;;;;;;5034699;28;20025;-85
2023/06/20 09:58:04;;;;;;;0.30;0.30;;;29.80;99.90;;;;;;5016567;28;20052;-85
2023/06/20 10:00:31;;;;;;;1.58;1.23;;;29.90;99.90;;;;;;5034480;28;20064;-85
2023/06/20 10:03:04;;;;;;;0.75;0.75;;;30.00;99.90;;;;;;5034070;28;20021;-85
2023/06/20 10:05:32;;;;;;;0.68;0.63;;;30.00;99.90;;;;;;5034758;28;20032;-85
2023/06/20 10:07:59;;;;;;;0.90;0.90;;;30.40;99.90;;;;;;5034054;28;20112;-85
2023/06/20 10:10:25;;;;;;;0.60;0.60;;;30.30;99.90;;;;;;5034501;28;20394;-85
2023/06/20 10:12:51;;;;;;;0.50;0.50;;;30.30;99.90;;;;;;5033425;28;20025;-85
2023/06/20 10:15:17;;;;;;;0.60;0.60;;;30.40;99.90;;;;;;5033595;28;20445;-85
2023/06/20 10:17:46;;;;;;;0.60;0.60;;;30.70;99.90;;;;;;5034119;28;20056;-85
2023/06/20 10:20:34;;;;;;;1.08;0.50;;;30.60;99.90;;;;;;5033986;28;20030;-85
2023/06/20 10:23:10;;;;;;;0.50;0.50;;;30.40;99.90;;;;;;5034072;28;20486;-85
2023/06/20 10:25:58;;;;;;;0.45;0.45;;;30.40;99.90;;;;;;5034142;28;20024;-85
2023/06/20 10:28:24;;;;;;;0.22;0.22;;;30.70;99.90;;;;;;5033662;28;20021;-85
2023/06/20 10:30:50;;;;;;;1.05;0.65;;;30.70;99.90;;;;;;5033721;28;20140;-85
2023/06/20 10:33:32;;;;;;;0.80;0.68;;;30.90;99.90;;;;;;5033778;28;20104;-85
2023/06/20 10:36:01;;;;;;;0.77;0.77;;;30.70;99.90;;;;;;5033946;28;20084;-84
2023/06/20 10:38:28;;;;;;;0.30;0.30;;;30.40;99.90;;;;;;5033703;28;20033;-85
2023/06/20 10:41:23;;;;;;;0.43;0.43;;;30.70;99.90;;;;;;5033785;28;20351;-85
2023/06/20 10:43:56;;;;;;;0.52;0.52;;;30.70;99.90;;;;;;5033100;28;20022;-85
2023/06/20 10:46:36;;;;;;;0.35;0.35;;;30.40;99.90;;;;;;5033415;28;20544;-85
2023/06/20 10:49:07;;;;;;;0.47;0.47;;;30.70;99.90;;;;;;5034011;28;20478;-85
2023/06/20 10:51:46;;;;;;;1.33;0.85;;;30.90;99.90;;;;;;5033560;28;20029;-85
2023/06/20 10:54:13;;;;;;;0.98;0.93;;;30.80;99.90;;;;;;5033438;28;20025;-85
2023/06/20 10:56:38;;;;;;;0.28;0.28;;;30.70;99.90;;;;;;5033382;28;20486;-85
2023/06/20 10:59:11;;;;;;;0.85;0.73;;;30.90;99.90;;;;;;5033012;28;20104;-85
2023/06/20 11:01:37;;;;;;;1.17;0.80;;;30.90;99.90;;;;;;5033365;28;20112;-85
2023/06/20 11:04:11;;;;;;;0.50;0.50;;;30.80;99.90;;;;;;5033133;28;20052;-85
2023/06/20 11:06:37;;;;;;;0.45;0.45;;;30.70;99.90;;;;;;5033163;28;20116;-85
2023/06/20 11:09:03;;;;;;;1.45;1.00;;;30.70;99.90;;;;;;5033527;28;20021;-85
2023/06/20 11:11:38;;;;;;;0.85;0.85;;;30.60;99.90;;;;;;5032975;28;20030;-85
2023/06/20 11:14:23;;;;;;;0.30;0.30;;;30.60;99.90;;;;;;5032611;28;20025;-85
2023/06/20 11:16:50;;;;;;;0.77;0.65;;;30.90;99.90;;;;;;5032959;28;20029;-85
2023/06/20 11:19:20;;;;;;;1.77;0.80;;;31.00;99.90;;;;;;5033353;28;20061;-85
2023/06/20 11:21:46;;;;;;;0.40;0.40;;;31.00;99.90;;;;;;5033328;28;20048;-85
2023/06/20 11:24:11;;;;;;;0.43;0.43;;;31.00;99.90;;;;;;5032646;28;20029;-85
2023/06/20 11:26:37;;;;;;;0.98;0.98;;;30.70;99.90;;;;;;5032326;28;20021;-85
2023/06/20 11:29:04;;;;;;;1.30;0.70;;;30.60;99.90;;;;;;5032957;28;20022;-85
2023/06/20 11:31:31;;;;;;;0.90;0.60;;;30.90;99.90;;;;;;5032658;28;20454;-85
2023/06/20 11:34:11;;;;;;;0.50;0.45;;;30.90;99.90;;;;;;5032510;28;20091;-85
2023/06/20 11:36:39;;;;;;;0.60;0.50;;;30.70;99.90;;;;;;5032335;28;20057;-85
2023/06/20 11:39:09;;;;;;;0.30;0.30;;;30.60;99.90;;;;;;5033141;28;20017;-85
2023/06/20 11:41:35;;;;;;;0.98;0.85;;;30.60;99.90;;;;;;5032263;28;20547;-85
2023/06/20 11:44:02;;;;;;;0.70;0.70;;;30.70;99.90;;;;;;5032489;28;20032;-85
2023/06/20 11:46:27;;;;;;;0.73;0.73;;;30.70;99.90;;;;;;5032533;28;20398;-85
2023/06/20 11:48:56;;;;;;;0.73;0.70;;;30.90;99.90;;;;;;5032943;28;20018;-85
2023/06/20 11:51:24;;;;;;;1.75;0.85;;;31.10;99.90;;;;;;5032413;28;20025;-85
2023/06/20 11:54:12;;;;;;;0.40;0.40;;;31.30;99.90;;;;;;5032701;28;20389;-85
2023/06/20 11:56:42;;;;;;;0.93;0.40;;;32.00;99.90;;;;;;5032110;28;20068;-85
2023/06/20 11:59:08;;;;;;;1.08;0.20;;;32.10;99.90;;;;;;5032549;28;20537;-85
2023/06/20 12:01:34;;;;;;;0.38;0.38;;;32.40;99.90;;;;;;5032339;28;20017;-85
2023/06/20 12:04:12;;;;;;;1.08;0.45;;;32.80;99.90;;;;;;5032134;28;20501;-85
2023/06/20 12:06:44;;;;;;;0.47;0.35;;;33.10;99.90;;;;;;5032182;28;20033;-85
2023/06/20 12:09:13;;;;;;;0.22;0.22;;;33.30;99.90;;;;;;5032151;28;20425;-85
2023/06/20 12:11:55;;;;;;;0.40;0.38;;;33.20;99.90;;;;;;5031900;28;20026;-85
2023/06/20 12:14:22;;;;;;;0.80;0.63;;;33.20;99.90;;;;;;5032182;28;20471;-85
2023/06/20 12:16:51;;;;;;;0.80;0.43;;;32.80;99.90;;;;;;5032151;28;20034;-85
2023/06/20 12:19:19;;;;;;;4.10;0.82;;;32.90;99.90;;;;;;5032542;28;20026;-85
2023/06/20 12:21:48;;;;;;;0.82;0.80;;;32.40;99.90;;;;;;5031865;28;20108;-85
2023/06/20 12:24:13;;;;;;;0.60;0.60;;;32.10;99.90;;;;;;5031808;28;20109;-84
2023/06/20 12:26:39;;;;;;;0.60;0.60;;;32.20;99.90;;;;;;5032111;28;20105;-85
2023/06/20 12:29:05;;;;;;;1.05;1.05;;;31.80;99.90;;;;;;5032053;28;20055;-84
2023/06/20 12:31:32;;;;;;;0.43;0.43;;;31.60;99.90;;;;;;5031794;28;20064;-85
2023/06/20 12:33:57;;;;;;;0.52;0.45;;;31.70;99.90;;;;;;5014152;28;20478;-85
2023/06/20 12:36:23;;;;;;;0.75;0.73;;;31.50;99.90;;;;;;5014153;28;20072;-85
2023/06/20 12:38:49;;;;;;;0.80;0.60;;;31.30;99.90;;;;;;5035977;28;20516;-85
2023/06/20 12:41:15;;;;;;;0.68;0.68;;;31.50;99.90;;;;;;5036011;28;20508;-85
2023/06/20 12:43:41;;;;;;;0.47;0.47;;;32.10;99.90;;;;;;5035799;28;20113;-85
2023/06/20 12:46:07;;;;;;;0.75;0.70;;;32.30;99.90;;;;;;5036141;28;20100;-85
2023/06/20 12:48:32;;;;;;;0.52;0.52;;;32.10;99.90;;;;;;5035831;28;20029;-85
2023/06/20 12:50:58;;;;;;;0.63;0.47;;;32.60;99.90;;;;;;5035720;28;20025;-85